sensor_id;sensor_type;location;lat;lon;timestamp;temperature;humidity
16523;DHT22;19889;52.546;13.348;2023-08-21T00:01:44;25.70;99.90
16523;DHT22;19889;52.546;13.348;2023-08-21T00:04:11;25.70;99.90
16523;DHT22;19889;52.546;13.348;2023-08-21T00:06:40;25.70;99.90
16523;DHT22;19889;52.546;13.348;2023-08-21T00:09:07;25.70;99.90
16523;DHT22;19889;52.546;13.348;2023-08-21T00:11:34;25.70;99.90
16523;DHT22;19889;52.546;13.348;2023-08-21T00:14:01;25.70;99.90
16523;DHT22;19889;52.546;13.348;2023-08-21T00:16:28;25.60;99.90
16523;DHT22;19889;52.546;13.348;2023-08-21T00:18:56;25.60;99.90
16523;DHT22;19889;52.546;13.348;2023-08-21T00:21:23;25.60;99.90
16523;DHT22;19889;52.546;13.348;2023-08-21T00:23:51;25.60;99.90
16523;DHT22;19889;52.546;13.348;2023-08-21T00:26:19;25.60;99.90
16523;DHT22;19889;52.546;13.348;2023-08-21T00:28:46;25.60;99.90
16523;DHT22;19889;52.546;13.348;2023-08-21T00:31:13;25.60;99.90
16523;DHT22;19889;52.546;13.348;2023-08-21T00:33:40;25.60;99.90
16523;DHT22;19889;52.546;13.348;2023-08-21T00:36:07;25.60;99.90
16523;DHT22;19889;52.546;13.348;2023-08-21T00:38:34;25.60;99.90
16523;DHT22;19889;52.546;13.348;2023-08-21T00:41:03;25.60;99.90
16523;DHT22;19889;52.546;13.348;2023-08-21T00:43:32;25.50;99.90
16523;DHT22;19889;52.546;13.348;2023-08-21T00:45:59;25.50;99.90
16523;DHT22;19889;52.546;13.348;2023-08-21T00:48:26;25.50;99.90
16523;DHT22;19889;52.546;13.348;2023-08-21T00:50:55;25.50;99.90
16523;DHT22;19889;52.546;13.348;2023-08-21T00:53:22;25.50;99.90
16523;DHT22;19889;52.546;13.348;2023-08-21T00:55:51;25.50;99.90
16523;DHT22;19889;52.546;13.348;2023-08-21T00:58:20;25.40;99.90
16523;DHT22;19889;52.546;13.348;2023-08-21T01:00:49;25.40;99.90
16523;DHT22;19889;52.546;13.348;2023-08-21T01:03:18;25.40;99.90
16523;DHT22;19889;52.546;13.348;2023-08-21T01:05:46;25.40;99.90
16523;DHT22;19889;52.546;13.348;2023-08-21T01:08:19;25.30;99.90
16523;DHT22;19889;52.546;13.348;2023-08-21T01:10:52;25.40;99.90
16523;DHT22;19889;52.546;13.348;2023-08-21T01:13:34;25.30;99.90
16523;DHT22;19889;52.546;13.348;2023-08-21T01:16:06;25.30;99.90
16523;DHT22;19889;52.546;13.348;2023-08-21T01:18:34;25.30;99.90
16523;DHT22;19889;52.546;13.348;2023-08-21T01:21:02;25.30;99.90
16523;DHT22;19889;52.546;13.348;2023-08-21T01:23:33;25.30;99.90
16523;DHT22;19889;52.546;13.348;2023-08-21T01:26:00;25.30;99.90
16523;DHT22;19889;52.546;13.348;2023-08-21T01:28:30;25.30;99.90
16523;DHT22;19889;52.546;13.348;2023-08-21T01:31:02;25.30;99.90
16523;DHT22;19889;52.546;13.348;2023-08-21T01:33:35;25.30;99.90
16523;DHT22;19889;52.546;13.348;2023-08-21T01:36:03;25.30;99.90
16523;DHT22;19889;52.546;13.348;2023-08-21T01:38:33;25.30;99.90
16523;DHT22;19889;52.546;13.348;2023-08-21T01:41:01;25.30;99.90
16523;DHT22;19889;52.546;13.348;2023-08-21T01:43:29;25.30;99.90
16523;DHT22;19889;52.546;13.348;2023-08-21T01:45:56;25.30;99.90
16523;DHT22;19889;52.546;13.348;2023-08-21T01:48:24;25.30;99.90
16523;DHT22;19889;52.546;13.348;2023-08-21T01:50:51;25.30;99.90
16523;DHT22;19889;52.546;13.348;2023-08-21T01:53:18;25.20;99.90
16523;DHT22;19889;52.546;13.348;2023-08-21T01:55:46;25.20;99.90
16523;DHT22;19889;52.546;13.348;2023-08-21T01:58:15;25.20;99.90
16523;DHT22;19889;52.546;13.348;2023-08-21T02:00:45;25.20;99.90
16523;DHT22;19889;52.546;13.348;2023-08-21T02:03:13;25.20;99.90
16523;DHT22;19889;52.546;13.348;2023-08-21T02:08:30;25.20;99.90
16523;DHT22;19889;52.546;13.348;2023-08-21T02:10:59;25.20;99.90
16523;DHT22;19889;52.546;13.348;2023-08-21T02:13:26;25.20;99.90
16523;DHT22;19889;52.546;13.348;2023-08-21T02:16:06;25.20;99.90
16523;DHT22;19889;52.546;13.348;2023-08-21T02:18:51;25.20;99.90
16523;DHT22;19889;52.546;13.348;2023-08-21T02:21:19;25.20;99.90
16523;DHT22;19889;52.546;13.348;2023-08-21T02:24:05;25.20;99.90
16523;DHT22;19889;52.546;13.348;2023-08-21T02:29:25;25.20;99.90
16523;DHT22;19889;52.546;13.348;2023-08-21T02:31:52;25.10;99.90
16523;DHT22;19889;52.546;13.348;2023-08-21T02:34:19;25.10;99.90
16523;DHT22;19889;52.546;13.348;2023-08-21T02:36:47;25.10;99.90
16523;DHT22;19889;52.546;13.348;2023-08-21T02:39:15;25.00;99.90
16523;DHT22;19889;52.546;13.348;2023-08-21T02:44:50;25.00;99.90
16523;DHT22;19889;52.546;13.348;2023-08-21T02:47:17;25.00;99.90
16523;DHT22;19889;52.546;13.348;2023-08-21T02:50:11;25.00;99.90
16523;DHT22;19889;52.546;13.348;2023-08-21T02:52:38;24.90;99.90
16523;DHT22;19889;52.546;13.348;2023-08-21T02:55:06;24.90;99.90
16523;DHT22;19889;52.546;13.348;2023-08-21T02:57:35;24.90;99.90
16523;DHT22;19889;52.546;13.348;2023-08-21T03:00:02;24.90;99.90
16523;DHT22;19889;52.546;13.348;2023-08-21T03:02:29;24.90;99.90
16523;DHT22;19889;52.546;13.348;2023-08-21T03:04:57;24.90;99.90
16523;DHT22;19889;52.546;13.348;2023-08-21T03:07:24;24.90;99.90
16523;DHT22;19889;52.546;13.348;2023-08-21T03:10:01;24.90;99.90
16523;DHT22;19889;52.546;13.348;2023-08-21T03:12:28;24.90;99.90
16523;DHT22;19889;52.546;13.348;2023-08-21T03:14:57;24.90;99.90
16523;DHT22;19889;52.546;13.348;2023-08-21T03:17:24;24.90;99.90
16523;DHT22;19889;52.546;13.348;2023-08-21T03:19:51;24.90;99.90
16523;DHT22;19889;52.546;13.348;2023-08-21T03:22:18;24.90;99.90
16523;DHT22;19889;52.546;13.348;2023-08-21T03:25:04;24.90;99.90
16523;DHT22;19889;52.546;13.348;2023-08-21T03:27:32;24.90;99.90
16523;DHT22;19889;52.546;13.348;2023-08-21T03:30:01;24.90;99.90
16523;DHT22;19889;52.546;13.348;2023-08-21T03:32:28;24.90;99.90
16523;DHT22;19889;52.546;13.348;2023-08-21T03:34:56;24.90;99.90
16523;DHT22;19889;52.546;13.348;2023-08-21T03:37:23;24.90;99.90
16523;DHT22;19889;52.546;13.348;2023-08-21T03:39:51;24.90;99.90
16523;DHT22;19889;52.546;13.348;2023-08-21T03:42:18;24.90;99.90
16523;DHT22;19889;52.546;13.348;2023-08-21T03:44:45;24.90;99.90
16523;DHT22;19889;52.546;13.348;2023-08-21T03:47:15;26.40;99.90
16523;DHT22;19889;52.546;13.348;2023-08-21T03:49:57;24.90;99.90
16523;DHT22;19889;52.546;13.348;2023-08-21T03:52:25;24.90;99.90
16523;DHT22;19889;52.546;13.348;2023-08-21T03:55:16;24.90;99.90
16523;DHT22;19889;52.546;13.348;2023-08-21T03:57:43;24.90;99.90
16523;DHT22;19889;52.546;13.348;2023-08-21T04:02:58;24.90;99.90
16523;DHT22;19889;52.546;13.348;2023-08-21T04:05:27;24.90;99.90
16523;DHT22;19889;52.546;13.348;2023-08-21T04:07:54;24.90;99.90
16523;DHT22;19889;52.546;13.348;2023-08-21T04:10:21;24.80;99.90
16523;DHT22;19889;52.546;13.348;2023-08-21T04:12:48;24.80;99.90
16523;DHT22;19889;52.546;13.348;2023-08-21T04:15:15;24.80;99.90
16523;DHT22;19889;52.546;13.348;2023-08-21T04:17:42;24.90;99.90
16523;DHT22;19889;52.546;13.348;2023-08-21T04:20:11;24.80;99.90
16523;DHT22;19889;52.546;13.348;2023-08-21T04:22:39;24.80;99.90
16523;DHT22;19889;52.546;13.348;2023-08-21T04:25:09;24.80;99.90
16523;DHT22;19889;52.546;13.348;2023-08-21T04:27:37;24.80;99.90
16523;DHT22;19889;52.546;13.348;2023-08-21T04:30:05;24.80;99.90
16523;DHT22;19889;52.546;13.348;2023-08-21T04:32:50;24.80;99.90
16523;DHT22;19889;52.546;13.348;2023-08-21T04:35:19;24.80;99.90
16523;DHT22;19889;52.546;13.348;2023-08-21T04:38:03;24.80;99.90
16523;DHT22;19889;52.546;13.348;2023-08-21T04:40:30;24.80;99.90
16523;DHT22;19889;52.546;13.348;2023-08-21T04:42:57;24.80;99.90
16523;DHT22;19889;52.546;13.348;2023-08-21T04:45:25;24.70;99.90
16523;DHT22;19889;52.546;13.348;2023-08-21T04:48:21;24.70;99.90
16523;DHT22;19889;52.546;13.348;2023-08-21T04:50:51;24.70;99.90
16523;DHT22;19889;52.546;13.348;2023-08-21T04:53:18;24.70;99.90
16523;DHT22;19889;52.546;13.348;2023-08-21T04:55:46;24.70;99.90
16523;DHT22;19889;52.546;13.348;2023-08-21T04:58:14;24.70;99.90
16523;DHT22;19889;52.546;13.348;2023-08-21T05:00:44;24.70;99.90
16523;DHT22;19889;52.546;13.348;2023-08-21T05:03:12;24.60;99.90
16523;DHT22;19889;52.546;13.348;2023-08-21T05:05:53;24.60;99.90
16523;DHT22;19889;52.546;13.348;2023-08-21T05:08:21;24.60;99.90
16523;DHT22;19889;52.546;13.348;2023-08-21T05:10:50;24.60;99.90
16523;DHT22;19889;52.546;13.348;2023-08-21T05:13:22;24.70;99.90
16523;DHT22;19889;52.546;13.348;2023-08-21T05:15:51;24.70;99.90
16523;DHT22;19889;52.546;13.348;2023-08-21T05:18:32;24.60;99.90
16523;DHT22;19889;52.546;13.348;2023-08-21T05:21:05;24.60;99.90
16523;DHT22;19889;52.546;13.348;2023-08-21T05:23:32;24.60;99.90
16523;DHT22;19889;52.546;13.348;2023-08-21T05:26:03;24.60;99.90
16523;DHT22;19889;52.546;13.348;2023-08-21T05:28:30;24.60;99.90
16523;DHT22;19889;52.546;13.348;2023-08-21T05:30:57;24.60;99.90
16523;DHT22;19889;52.546;13.348;2023-08-21T05:33:27;24.60;99.90
16523;DHT22;19889;52.546;13.348;2023-08-21T05:35:56;24.60;99.90
16523;DHT22;19889;52.546;13.348;2023-08-21T05:38:25;24.70;99.90
16523;DHT22;19889;52.546;13.348;2023-08-21T05:40:52;24.70;99.90
16523;DHT22;19889;52.546;13.348;2023-08-21T05:43:19;24.70;99.90
16523;DHT22;19889;52.546;13.348;2023-08-21T05:45:47;24.80;99.90
16523;DHT22;19889;52.546;13.348;2023-08-21T05:48:14;24.80;99.90
16523;DHT22;19889;52.546;13.348;2023-08-21T05:50:42;24.80;99.90
16523;DHT22;19889;52.546;13.348;2023-08-21T05:53:09;24.80;99.90
16523;DHT22;19889;52.546;13.348;2023-08-21T05:55:38;24.80;99.90
16523;DHT22;19889;52.546;13.348;2023-08-21T05:58:05;24.90;99.90
16523;DHT22;19889;52.546;13.348;2023-08-21T06:00:33;24.90;99.90
16523;DHT22;19889;52.546;13.348;2023-08-21T06:03:02;24.90;99.90
16523;DHT22;19889;52.546;13.348;2023-08-21T06:05:48;24.90;99.90
16523;DHT22;19889;52.546;13.348;2023-08-21T06:08:15;24.90;99.90
16523;DHT22;19889;52.546;13.348;2023-08-21T06:10:44;24.90;99.90
16523;DHT22;19889;52.546;13.348;2023-08-21T06:13:11;24.90;99.90
16523;DHT22;19889;52.546;13.348;2023-08-21T06:15:38;24.90;99.90
16523;DHT22;19889;52.546;13.348;2023-08-21T06:18:05;25.80;99.90
16523;DHT22;19889;52.546;13.348;2023-08-21T06:20:32;24.90;99.90
16523;DHT22;19889;52.546;13.348;2023-08-21T06:22:59;24.90;99.90
16523;DHT22;19889;52.546;13.348;2023-08-21T06:25:26;24.90;99.90
16523;DHT22;19889;52.546;13.348;2023-08-21T06:27:57;25.00;99.90
16523;DHT22;19889;52.546;13.348;2023-08-21T06:30:25;25.00;99.90
16523;DHT22;19889;52.546;13.348;2023-08-21T06:32:53;25.00;99.90
16523;DHT22;19889;52.546;13.348;2023-08-21T06:35:37;25.00;99.90
16523;DHT22;19889;52.546;13.348;2023-08-21T06:38:04;25.00;99.90
16523;DHT22;19889;52.546;13.348;2023-08-21T06:40:33;25.00;99.90
16523;DHT22;19889;52.546;13.348;2023-08-21T06:43:01;25.00;99.90
16523;DHT22;19889;52.546;13.348;2023-08-21T06:45:33;25.00;99.90
16523;DHT22;19889;52.546;13.348;2023-08-21T06:48:02;25.00;99.90
16523;DHT22;19889;52.546;13.348;2023-08-21T06:50:30;25.10;99.90
16523;DHT22;19889;52.546;13.348;2023-08-21T06:52:57;25.10;99.90
16523;DHT22;19889;52.546;13.348;2023-08-21T06:55:24;25.10;99.90
16523;DHT22;19889;52.546;13.348;2023-08-21T06:57:56;25.10;99.90
16523;DHT22;19889;52.546;13.348;2023-08-21T07:00:25;25.10;99.90
16523;DHT22;19889;52.546;13.348;2023-08-21T07:03:06;25.10;99.90
16523;DHT22;19889;52.546;13.348;2023-08-21T07:05:46;25.10;99.90
16523;DHT22;19889;52.546;13.348;2023-08-21T07:08:13;25.10;99.90
16523;DHT22;19889;52.546;13.348;2023-08-21T07:10:40;25.10;99.90
16523;DHT22;19889;52.546;13.348;2023-08-21T07:13:07;25.10;99.90
16523;DHT22;19889;52.546;13.348;2023-08-21T07:15:35;25.10;99.90
16523;DHT22;19889;52.546;13.348;2023-08-21T07:18:03;25.20;99.90
16523;DHT22;19889;52.546;13.348;2023-08-21T07:20:31;25.20;99.90
16523;DHT22;19889;52.546;13.348;2023-08-21T07:22:58;25.20;99.90
16523;DHT22;19889;52.546;13.348;2023-08-21T07:25:25;25.20;99.90
16523;DHT22;19889;52.546;13.348;2023-08-21T07:27:52;25.20;99.90
16523;DHT22;19889;52.546;13.348;2023-08-21T07:30:20;25.20;99.90
16523;DHT22;19889;52.546;13.348;2023-08-21T07:32:49;25.20;99.90
16523;DHT22;19889;52.546;13.348;2023-08-21T07:35:19;25.20;99.90
16523;DHT22;19889;52.546;13.348;2023-08-21T07:37:46;25.20;99.90
16523;DHT22;19889;52.546;13.348;2023-08-21T07:40:13;25.30;99.90
16523;DHT22;19889;52.546;13.348;2023-08-21T07:42:40;25.30;99.90
16523;DHT22;19889;52.546;13.348;2023-08-21T07:45:08;25.30;99.90
16523;DHT22;19889;52.546;13.348;2023-08-21T07:47:36;25.30;99.90
16523;DHT22;19889;52.546;13.348;2023-08-21T07:50:05;25.30;99.90
16523;DHT22;19889;52.546;13.348;2023-08-21T07:52:40;25.30;99.90
16523;DHT22;19889;52.546;13.348;2023-08-21T07:55:08;25.30;99.90
16523;DHT22;19889;52.546;13.348;2023-08-21T07:57:39;25.30;99.90
16523;DHT22;19889;52.546;13.348;2023-08-21T08:00:09;25.30;99.90
16523;DHT22;19889;52.546;13.348;2023-08-21T08:02:40;25.30;99.90
16523;DHT22;19889;52.546;13.348;2023-08-21T08:05:10;25.30;99.90
16523;DHT22;19889;52.546;13.348;2023-08-21T08:07:37;25.30;99.90
16523;DHT22;19889;52.546;13.348;2023-08-21T08:10:05;25.20;99.90
16523;DHT22;19889;52.546;13.348;2023-08-21T08:12:32;25.20;99.90
16523;DHT22;19889;52.546;13.348;2023-08-21T08:15:00;25.20;99.90
16523;DHT22;19889;52.546;13.348;2023-08-21T08:17:27;25.30;99.90
16523;DHT22;19889;52.546;13.348;2023-08-21T08:19:54;25.30;99.90
16523;DHT22;19889;52.546;13.348;2023-08-21T08:22:23;25.30;99.90
16523;DHT22;19889;52.546;13.348;2023-08-21T08:24:50;25.30;99.90
16523;DHT22;19889;52.546;13.348;2023-08-21T08:27:17;25.20;99.90
16523;DHT22;19889;52.546;13.348;2023-08-21T08:29:44;25.30;99.90
16523;DHT22;19889;52.546;13.348;2023-08-21T08:32:11;25.30;99.90
16523;DHT22;19889;52.546;13.348;2023-08-21T08:34:38;25.30;99.90
16523;DHT22;19889;52.546;13.348;2023-08-21T08:37:06;25.30;99.90
16523;DHT22;19889;52.546;13.348;2023-08-21T08:39:34;25.30;99.90
16523;DHT22;19889;52.546;13.348;2023-08-21T08:42:14;25.30;99.90
16523;DHT22;19889;52.546;13.348;2023-08-21T08:44:42;25.30;99.90
16523;DHT22;19889;52.546;13.348;2023-08-21T08:47:10;25.30;99.90
16523;DHT22;19889;52.546;13.348;2023-08-21T08:49:38;25.30;99.90
16523;DHT22;19889;52.546;13.348;2023-08-21T08:52:05;25.30;99.90
16523;DHT22;19889;52.546;13.348;2023-08-21T08:54:34;25.40;99.90
16523;DHT22;19889;52.546;13.348;2023-08-21T08:57:04;25.40;99.90
16523;DHT22;19889;52.546;13.348;2023-08-21T08:59:32;25.40;99.90
16523;DHT22;19889;52.546;13.348;2023-08-21T09:02:00;25.40;99.90
16523;DHT22;19889;52.546;13.348;2023-08-21T09:04:27;25.50;99.90
16523;DHT22;19889;52.546;13.348;2023-08-21T09:07:06;25.50;99.90
16523;DHT22;19889;52.546;13.348;2023-08-21T09:09:39;25.60;99.90
16523;DHT22;19889;52.546;13.348;2023-08-21T09:12:13;25.70;99.90
16523;DHT22;19889;52.546;13.348;2023-08-21T09:14:41;25.70;99.90
16523;DHT22;19889;52.546;13.348;2023-08-21T09:17:09;25.70;99.90
16523;DHT22;19889;52.546;13.348;2023-08-21T09:19:36;25.70;99.90
16523;DHT22;19889;52.546;13.348;2023-08-21T09:22:11;25.70;99.90
16523;DHT22;19889;52.546;13.348;2023-08-21T09:24:41;25.70;99.90
16523;DHT22;19889;52.546;13.348;2023-08-21T09:27:26;25.70;99.90
16523;DHT22;19889;52.546;13.348;2023-08-21T09:29:53;25.80;99.90
16523;DHT22;19889;52.546;13.348;2023-08-21T09:32:20;25.80;99.90
16523;DHT22;19889;52.546;13.348;2023-08-21T09:34:47;25.80;99.90
16523;DHT22;19889;52.546;13.348;2023-08-21T09:37:18;25.80;99.90
16523;DHT22;19889;52.546;13.348;2023-08-21T09:39:46;25.80;99.90
16523;DHT22;19889;52.546;13.348;2023-08-21T09:42:14;25.80;99.90
16523;DHT22;19889;52.546;13.348;2023-08-21T09:44:42;25.80;99.90
16523;DHT22;19889;52.546;13.348;2023-08-21T09:47:10;25.80;99.90
16523;DHT22;19889;52.546;13.348;2023-08-21T09:49:38;25.80;99.90
16523;DHT22;19889;52.546;13.348;2023-08-21T09:52:06;25.80;99.90
16523;DHT22;19889;52.546;13.348;2023-08-21T09:54:37;25.80;99.90
16523;DHT22;19889;52.546;13.348;2023-08-21T09:57:06;25.80;99.90
16523;DHT22;19889;52.546;13.348;2023-08-21T09:59:33;25.80;99.90
16523;DHT22;19889;52.546;13.348;2023-08-21T10:02:04;25.80;99.90
16523;DHT22;19889;52.546;13.348;2023-08-21T10:04:32;25.80;99.90
16523;DHT22;19889;52.546;13.348;2023-08-21T10:07:02;25.80;99.90
16523;DHT22;19889;52.546;13.348;2023-08-21T10:09:33;25.80;99.90
16523;DHT22;19889;52.546;13.348;2023-08-21T10:12:01;25.80;99.90
16523;DHT22;19889;52.546;13.348;2023-08-21T10:14:30;25.70;99.90
16523;DHT22;19889;52.546;13.348;2023-08-21T10:16:57;25.80;99.90
16523;DHT22;19889;52.546;13.348;2023-08-21T10:19:30;25.80;99.90
16523;DHT22;19889;52.546;13.348;2023-08-21T10:21:57;25.80;99.90
16523;DHT22;19889;52.546;13.348;2023-08-21T10:24:35;25.80;99.90
16523;DHT22;19889;52.546;13.348;2023-08-21T10:27:03;25.80;99.90
16523;DHT22;19889;52.546;13.348;2023-08-21T10:29:32;25.80;99.90
16523;DHT22;19889;52.546;13.348;2023-08-21T10:32:00;25.90;99.90
16523;DHT22;19889;52.546;13.348;2023-08-21T10:34:33;25.90;99.90
16523;DHT22;19889;52.546;13.348;2023-08-21T10:37:05;26.00;99.90
16523;DHT22;19889;52.546;13.348;2023-08-21T10:39:33;26.00;99.90
16523;DHT22;19889;52.546;13.348;2023-08-21T10:42:06;26.00;99.90
16523;DHT22;19889;52.546;13.348;2023-08-21T10:44:47;26.00;99.90
16523;DHT22;19889;52.546;13.348;2023-08-21T10:47:19;26.00;99.90
16523;DHT22;19889;52.546;13.348;2023-08-21T10:49:50;25.90;99.90
16523;DHT22;19889;52.546;13.348;2023-08-21T10:52:21;25.90;99.90
16523;DHT22;19889;52.546;13.348;2023-08-21T10:54:50;26.00;99.90
16523;DHT22;19889;52.546;13.348;2023-08-21T10:57:18;26.00;99.90
16523;DHT22;19889;52.546;13.348;2023-08-21T10:59:56;26.00;99.90
16523;DHT22;19889;52.546;13.348;2023-08-21T11:02:25;26.10;99.90
16523;DHT22;19889;52.546;13.348;2023-08-21T11:04:52;26.10;99.90
16523;DHT22;19889;52.546;13.348;2023-08-21T11:07:20;26.10;99.90
16523;DHT22;19889;52.546;13.348;2023-08-21T11:09:48;26.10;99.90
16523;DHT22;19889;52.546;13.348;2023-08-21T11:12:17;26.20;99.90
16523;DHT22;19889;52.546;13.348;2023-08-21T11:14:44;26.20;99.90
16523;DHT22;19889;52.546;13.348;2023-08-21T11:17:13;26.20;99.90
16523;DHT22;19889;52.546;13.348;2023-08-21T11:19:41;26.20;99.90
16523;DHT22;19889;52.546;13.348;2023-08-21T11:22:09;26.20;99.90
16523;DHT22;19889;52.546;13.348;2023-08-21T11:24:40;26.20;99.90
16523;DHT22;19889;52.546;13.348;2023-08-21T11:27:08;26.20;99.70
16523;DHT22;19889;52.546;13.348;2023-08-21T11:29:38;26.20;99.50
16523;DHT22;19889;52.546;13.348;2023-08-21T11:32:14;26.20;99.70
16523;DHT22;19889;52.546;13.348;2023-08-21T11:34:42;26.20;99.30
16523;DHT22;19889;52.546;13.348;2023-08-21T11:37:10;26.20;99.40
16523;DHT22;19889;52.546;13.348;2023-08-21T11:39:45;26.20;99.90
16523;DHT22;19889;52.546;13.348;2023-08-21T11:42:13;26.20;99.90
16523;DHT22;19889;52.546;13.348;2023-08-21T11:44:45;26.30;99.90
16523;DHT22;19889;52.546;13.348;2023-08-21T11:47:15;26.30;99.90
16523;DHT22;19889;52.546;13.348;2023-08-21T11:49:43;26.30;99.90
16523;DHT22;19889;52.546;13.348;2023-08-21T11:52:13;26.30;99.90
16523;DHT22;19889;52.546;13.348;2023-08-21T11:54:41;26.30;99.90
16523;DHT22;19889;52.546;13.348;2023-08-21T11:57:11;26.30;99.90
16523;DHT22;19889;52.546;13.348;2023-08-21T11:59:39;26.40;99.90
16523;DHT22;19889;52.546;13.348;2023-08-21T12:02:13;26.40;99.90
16523;DHT22;19889;52.546;13.348;2023-08-21T12:04:43;26.40;99.90
16523;DHT22;19889;52.546;13.348;2023-08-21T12:07:12;26.40;99.90
16523;DHT22;19889;52.546;13.348;2023-08-21T12:09:39;26.40;99.90
16523;DHT22;19889;52.546;13.348;2023-08-21T12:12:06;26.40;99.90
16523;DHT22;19889;52.546;13.348;2023-08-21T12:14:33;26.50;99.90
16523;DHT22;19889;52.546;13.348;2023-08-21T12:17:05;26.50;99.90
16523;DHT22;19889;52.546;13.348;2023-08-21T12:19:33;26.50;99.90
16523;DHT22;19889;52.546;13.348;2023-08-21T12:22:01;26.50;99.90
16523;DHT22;19889;52.546;13.348;2023-08-21T12:24:28;26.50;99.90
16523;DHT22;19889;52.546;13.348;2023-08-21T12:26:56;26.50;99.90
16523;DHT22;19889;52.546;13.348;2023-08-21T12:29:23;26.50;99.90
16523;DHT22;19889;52.546;13.348;2023-08-21T12:31:50;26.50;99.90
16523;DHT22;19889;52.546;13.348;2023-08-21T12:34:17;26.50;99.90
16523;DHT22;19889;52.546;13.348;2023-08-21T12:36:45;26.50;99.90
16523;DHT22;19889;52.546;13.348;2023-08-21T12:39:13;26.50;99.90
16523;DHT22;19889;52.546;13.348;2023-08-21T12:41:41;26.50;99.90
16523;DHT22;19889;52.546;13.348;2023-08-21T12:44:09;26.50;99.90
16523;DHT22;19889;52.546;13.348;2023-08-21T12:46:36;26.50;99.90
16523;DHT22;19889;52.546;13.348;2023-08-21T12:49:04;26.50;99.90
16523;DHT22;19889;52.546;13.348;2023-08-21T12:51:32;26.50;99.90
16523;DHT22;19889;52.546;13.348;2023-08-21T12:53:59;26.50;99.80
16523;DHT22;19889;52.546;13.348;2023-08-21T12:56:31;26.50;99.70
16523;DHT22;19889;52.546;13.348;2023-08-21T12:59:06;26.50;99.00
16523;DHT22;19889;52.546;13.348;2023-08-21T13:01:33;26.50;99.10
16523;DHT22;19889;52.546;13.348;2023-08-21T13:04:03;26.50;99.10
16523;DHT22;19889;52.546;13.348;2023-08-21T13:06:30;26.50;99.10
16523;DHT22;19889;52.546;13.348;2023-08-21T13:08:58;26.50;98.90
16523;DHT22;19889;52.546;13.348;2023-08-21T13:11:25;26.50;98.70
16523;DHT22;19889;52.546;13.348;2023-08-21T13:13:53;26.50;98.50
16523;DHT22;19889;52.546;13.348;2023-08-21T13:16:20;26.50;98.10
16523;DHT22;19889;52.546;13.348;2023-08-21T13:18:48;26.50;98.10
16523;DHT22;19889;52.546;13.348;2023-08-21T13:21:15;26.50;98.30
16523;DHT22;19889;52.546;13.348;2023-08-21T13:23:43;26.50;98.30
16523;DHT22;19889;52.546;13.348;2023-08-21T13:26:10;26.50;98.40
16523;DHT22;19889;52.546;13.348;2023-08-21T13:28:38;26.50;98.40
16523;DHT22;19889;52.546;13.348;2023-08-21T13:31:06;26.50;98.50
16523;DHT22;19889;52.546;13.348;2023-08-21T13:33:44;26.50;98.50
16523;DHT22;19889;52.546;13.348;2023-08-21T13:36:11;26.50;98.50
16523;DHT22;19889;52.546;13.348;2023-08-21T13:38:38;26.50;98.10
16523;DHT22;19889;52.546;13.348;2023-08-21T13:41:06;26.50;98.00
16523;DHT22;19889;52.546;13.348;2023-08-21T13:43:33;26.50;97.80
16523;DHT22;19889;52.546;13.348;2023-08-21T13:46:01;26.50;97.50
16523;DHT22;19889;52.546;13.348;2023-08-21T13:48:30;26.50;97.10
16523;DHT22;19889;52.546;13.348;2023-08-21T13:50:58;26.50;96.90
16523;DHT22;19889;52.546;13.348;2023-08-21T13:53:25;26.50;96.80
16523;DHT22;19889;52.546;13.348;2023-08-21T13:55:52;26.40;96.60
16523;DHT22;19889;52.546;13.348;2023-08-21T13:58:20;26.40;96.50
16523;DHT22;19889;52.546;13.348;2023-08-21T14:00:47;26.40;96.50
16523;DHT22;19889;52.546;13.348;2023-08-21T14:03:15;26.40;96.40
16523;DHT22;19889;52.546;13.348;2023-08-21T14:05:43;26.50;96.40
16523;DHT22;19889;52.546;13.348;2023-08-21T14:08:10;26.50;96.40
16523;DHT22;19889;52.546;13.348;2023-08-21T14:10:37;26.50;96.30
16523;DHT22;19889;52.546;13.348;2023-08-21T14:13:05;26.50;95.90
16523;DHT22;19889;52.546;13.348;2023-08-21T14:15:33;26.50;95.80
16523;DHT22;19889;52.546;13.348;2023-08-21T14:18:00;26.50;95.80
16523;DHT22;19889;52.546;13.348;2023-08-21T14:20:28;26.50;95.80
16523;DHT22;19889;52.546;13.348;2023-08-21T14:22:56;26.50;95.80
16523;DHT22;19889;52.546;13.348;2023-08-21T14:25:23;26.50;95.60
16523;DHT22;19889;52.546;13.348;2023-08-21T14:27:51;26.50;95.30
16523;DHT22;19889;52.546;13.348;2023-08-21T14:30:18;26.50;95.30
16523;DHT22;19889;52.546;13.348;2023-08-21T14:32:45;26.50;94.90
16523;DHT22;19889;52.546;13.348;2023-08-21T14:35:12;26.50;94.90
16523;DHT22;19889;52.546;13.348;2023-08-21T14:37:39;26.50;94.80
16523;DHT22;19889;52.546;13.348;2023-08-21T14:40:09;26.50;94.70
16523;DHT22;19889;52.546;13.348;2023-08-21T14:42:36;26.50;94.60
16523;DHT22;19889;52.546;13.348;2023-08-21T14:45:04;26.50;94.60
16523;DHT22;19889;52.546;13.348;2023-08-21T14:47:31;26.40;94.40
16523;DHT22;19889;52.546;13.348;2023-08-21T14:49:59;26.50;94.40
16523;DHT22;19889;52.546;13.348;2023-08-21T14:52:26;26.50;94.40
16523;DHT22;19889;52.546;13.348;2023-08-21T14:54:53;26.40;94.20
16523;DHT22;19889;52.546;13.348;2023-08-21T14:57:22;26.40;94.00
16523;DHT22;19889;52.546;13.348;2023-08-21T14:59:49;26.40;93.90
16523;DHT22;19889;52.546;13.348;2023-08-21T15:02:16;26.40;93.90
16523;DHT22;19889;52.546;13.348;2023-08-21T15:04:44;26.40;93.80
16523;DHT22;19889;52.546;13.348;2023-08-21T15:07:11;26.40;93.80
16523;DHT22;19889;52.546;13.348;2023-08-21T15:09:38;26.40;93.80
16523;DHT22;19889;52.546;13.348;2023-08-21T15:12:07;26.40;93.80
16523;DHT22;19889;52.546;13.348;2023-08-21T15:14:36;26.40;93.60
16523;DHT22;19889;52.546;13.348;2023-08-21T15:17:03;26.40;93.60
16523;DHT22;19889;52.546;13.348;2023-08-21T15:19:30;26.40;93.70
16523;DHT22;19889;52.546;13.348;2023-08-21T15:21:58;26.50;93.70
16523;DHT22;19889;52.546;13.348;2023-08-21T15:24:25;26.40;93.60
16523;DHT22;19889;52.546;13.348;2023-08-21T15:26:52;26.50;93.60
16523;DHT22;19889;52.546;13.348;2023-08-21T15:29:19;26.50;93.70
16523;DHT22;19889;52.546;13.348;2023-08-21T15:31:48;26.50;93.90
16523;DHT22;19889;52.546;13.348;2023-08-21T15:34:16;26.40;93.80
16523;DHT22;19889;52.546;13.348;2023-08-21T15:36:43;26.50;93.90
16523;DHT22;19889;52.546;13.348;2023-08-21T15:39:11;26.50;93.90